Time;durP1;ratioP1;P1;durP2;ratioP2;P2;SDS_P1;SDS_P2;PMS_P1;PMS_P2;Temp;Humidity;BMP_temperature;BMP_pressure;BME280_temperature;BME280_humidity;BME280_pressure;Samples;Min_cycle;Max_cycle;Signal;HPM_P1;HPM_P2
2023/12/23 00:01:57;;;;;;;4.47;3.20;;;9.60;99.90;;;;;;5088374;28;20187;-60
2023/12/23 00:04:23;;;;;;;3.97;3.63;;;9.60;99.90;;;;;;5087699;28;20182;-60
2023/12/23 00:06:49;;;;;;;3.57;3.27;;;9.60;99.90;;;;;;5084488;28;21019;-59
2023/12/23 00:09:15;;;;;;;4.33;3.20;;;9.60;99.90;;;;;;5085478;28;20559;-59
2023/12/23 00:11:42;;;;;;;3.83;3.50;;;9.60;99.90;;;;;;5086932;28;20188;-57
2023/12/23 00:14:08;;;;;;;8.07;4.80;;;9.60;99.90;;;;;;5083393;28;20430;-60
2023/12/23 00:16:33;;;;;;;21.13;15.07;;;9.60;99.90;;;;;;5086284;28;20521;-60
2023/12/23 00:18:59;;;;;;;34.10;23.20;;;9.60;99.90;;;;;;5088858;28;20437;-60
2023/12/23 00:21:25;;;;;;;30.47;21.67;;;9.60;99.90;;;;;;5090806;28;20201;-60
2023/12/23 00:23:51;;;;;;;15.17;11.10;;;9.60;99.90;;;;;;5084404;28;20174;-60
2023/12/23 00:26:16;;;;;;;12.23;9.93;;;9.50;99.90;;;;;;5083132;28;20183;-60
2023/12/23 00:28:42;;;;;;;14.20;10.70;;;9.50;99.90;;;;;;5084578;28;20260;-60
2023/12/23 00:31:09;;;;;;;12.03;7.87;;;9.50;99.90;;;;;;5086957;28;20206;-59
2023/12/23 00:33:35;;;;;;;10.10;6.80;;;9.40;99.90;;;;;;5087250;28;20181;-59
2023/12/23 00:36:01;;;;;;;6.83;4.50;;;9.50;99.90;;;;;;5090707;28;20436;-59
2023/12/23 00:38:27;;;;;;;4.80;4.00;;;9.50;99.90;;;;;;5088113;28;20419;-59
2023/12/23 00:40:52;;;;;;;6.10;3.80;;;9.50;99.90;;;;;;5087995;28;20182;-59
2023/12/23 00:43:18;;;;;;;4.63;4.27;;;9.50;99.90;;;;;;5096829;28;20175;-59
2023/12/23 00:45:44;;;;;;;3.90;3.60;;;9.60;99.90;;;;;;5084692;28;20677;-59
2023/12/23 00:48:11;;;;;;;3.60;3.40;;;9.60;99.90;;;;;;5087995;28;20187;-59
2023/12/23 00:50:37;;;;;;;3.73;3.30;;;9.70;99.90;;;;;;5087542;28;20208;-58
2023/12/23 00:53:03;;;;;;;4.73;3.37;;;9.70;99.90;;;;;;5093089;28;20478;-58
2023/12/23 00:55:28;;;;;;;3.57;3.27;;;9.70;99.90;;;;;;5088768;28;20184;-59
2023/12/23 00:57:54;;;;;;;4.00;3.17;;;9.70;99.90;;;;;;5089492;28;20194;-60
2023/12/23 01:00:20;;;;;;;4.10;3.30;;;9.70;99.90;;;;;;5088105;28;20211;-59
2023/12/23 01:02:46;;;;;;;3.60;3.30;;;9.80;99.90;;;;;;5087876;28;20175;-59
2023/12/23 01:05:12;;;;;;;5.23;3.70;;;9.80;99.90;;;;;;5087462;28;20933;-60
2023/12/23 01:07:38;;;;;;;4.70;3.40;;;9.80;99.90;;;;;;5084024;28;20179;-59
2023/12/23 01:10:04;;;;;;;5.50;3.50;;;9.80;99.90;;;;;;5088010;28;20343;-59
2023/12/23 01:12:30;;;;;;;3.53;3.23;;;9.80;99.90;;;;;;5094919;28;20647;-59
2023/12/23 01:14:55;;;;;;;4.00;3.30;;;9.80;99.90;;;;;;5078356;28;20471;-60
2023/12/23 01:17:21;;;;;;;7.90;3.17;;;9.80;99.90;;;;;;5086799;28;20179;-60
2023/12/23 01:19:47;;;;;;;3.53;3.23;;;9.90;99.90;;;;;;5088238;28;20638;-60
2023/12/23 01:22:12;;;;;;;3.70;3.40;;;9.90;99.90;;;;;;5089081;28;20274;-60
2023/12/23 01:24:38;;;;;;;3.40;3.20;;;9.80;99.90;;;;;;5087918;28;20177;-59
2023/12/23 01:27:04;;;;;;;3.93;3.50;;;9.80;99.90;;;;;;5076593;28;20183;-59
2023/12/23 01:29:30;;;;;;;3.47;3.10;;;9.80;99.90;;;;;;5089444;28;20282;-59
2023/12/23 01:31:55;;;;;;;4.10;3.13;;;9.80;99.90;;;;;;5089681;28;20183;-59
2023/12/23 01:34:21;;;;;;;3.77;3.40;;;9.80;99.90;;;;;;5094285;28;20174;-59
2023/12/23 01:36:47;;;;;;;10.60;3.90;;;9.80;99.90;;;;;;5082939;28;20513;-59
2023/12/23 01:39:13;;;;;;;3.50;3.20;;;9.70;99.90;;;;;;5093787;28;21693;-59
2023/12/23 01:41:38;;;;;;;3.63;3.43;;;9.70;99.90;;;;;;5089046;28;20661;-59
2023/12/23 01:44:04;;;;;;;3.43;3.13;;;9.70;99.90;;;;;;5092054;28;20190;-59
2023/12/23 01:46:31;;;;;;;4.90;3.80;;;9.70;99.90;;;;;;5091277;28;20271;-59
2023/12/23 01:48:58;;;;;;;3.40;2.90;;;9.70;99.90;;;;;;5092806;28;20237;-59
2023/12/23 01:51:25;;;;;;;5.70;3.30;;;9.70;99.90;;;;;;5093388;28;20788;-59
2023/12/23 01:53:51;;;;;;;3.20;2.97;;;9.70;99.90;;;;;;5090709;28;20421;-59
2023/12/23 01:56:17;;;;;;;3.90;2.90;;;9.70;99.90;;;;;;5092201;28;20501;-59
2023/12/23 01:58:43;;;;;;;5.23;3.20;;;9.70;99.90;;;;;;5091901;28;20425;-59
2023/12/23 02:01:09;;;;;;;2.50;2.40;;;9.60;99.90;;;;;;5084830;28;20201;-59
2023/12/23 02:03:34;;;;;;;3.23;2.77;;;9.60;99.90;;;;;;5089399;28;20188;-60
2023/12/23 02:06:00;;;;;;;6.03;3.60;;;9.60;99.90;;;;;;5092980;28;20916;-59
2023/12/23 02:08:26;;;;;;;4.83;3.47;;;9.70;99.90;;;;;;5090725;28;20241;-59
2023/12/23 02:11:04;;;;;;;3.97;3.67;;;9.70;99.90;;;;;;5091008;28;20490;-59
2023/12/23 02:13:42;;;;;;;5.10;3.63;;;9.70;99.90;;;;;;5091636;28;20679;-59
2023/12/23 02:16:10;;;;;;;4.70;3.90;;;9.70;99.90;;;;;;5088315;28;20458;-59
2023/12/23 02:18:36;;;;;;;4.40;3.77;;;9.80;99.90;;;;;;5085381;28;20452;-60
2023/12/23 02:21:02;;;;;;;5.67;3.17;;;9.90;99.90;;;;;;5089492;28;20525;-60
2023/12/23 02:23:28;;;;;;;3.77;3.17;;;9.90;99.90;;;;;;5096128;28;20523;-59
2023/12/23 02:26:02;;;;;;;4.40;4.10;;;9.90;99.90;;;;;;5086985;28;20185;-59
2023/12/23 02:28:28;;;;;;;6.03;3.80;;;9.90;99.90;;;;;;5092009;28;20187;-59
2023/12/23 02:30:54;;;;;;;3.50;3.30;;;10.00;99.90;;;;;;5089683;28;20481;-60
2023/12/23 02:33:20;;;;;;;3.43;3.27;;;10.00;99.90;;;;;;5096375;28;20179;-59
2023/12/23 02:35:52;;;;;;;5.03;3.50;;;10.00;99.90;;;;;;5089520;28;20433;-59
2023/12/23 02:38:21;;;;;;;4.00;3.50;;;10.00;99.90;;;;;;5091104;28;20422;-60
2023/12/23 02:40:47;;;;;;;3.70;3.40;;;10.10;99.90;;;;;;5089593;28;20440;-59
2023/12/23 02:43:13;;;;;;;5.40;3.40;;;10.10;99.90;;;;;;5093284;28;20982;-60
2023/12/23 02:45:38;;;;;;;4.60;3.43;;;10.10;99.90;;;;;;5090074;28;20436;-59
2023/12/23 02:48:05;;;;;;;4.30;3.70;;;10.10;99.90;;;;;;5092556;28;20182;-59
2023/12/23 02:50:31;;;;;;;4.27;3.90;;;10.10;99.90;;;;;;5092512;28;20204;-59
2023/12/23 02:52:59;;;;;;;4.70;4.03;;;10.10;99.90;;;;;;5090269;28;21126;-59
2023/12/23 02:55:25;;;;;;;4.40;4.00;;;10.10;99.90;;;;;;5090783;28;20419;-59
2023/12/23 02:57:51;;;;;;;4.30;3.90;;;10.10;99.90;;;;;;5091511;28;20437;-59
2023/12/23 03:00:17;;;;;;;4.60;3.90;;;10.10;99.90;;;;;;5087238;28;20216;-59
2023/12/23 03:02:43;;;;;;;4.10;3.90;;;10.10;99.90;;;;;;5117246;27;20210;-59
2023/12/23 03:05:08;;;;;;;4.37;4.00;;;10.10;99.90;;;;;;5090594;28;20433;-59
2023/12/23 03:07:34;;;;;;;4.27;3.87;;;10.10;99.90;;;;;;5091384;28;20255;-59
2023/12/23 03:10:00;;;;;;;4.93;4.10;;;10.10;99.90;;;;;;5093496;28;20772;-59
2023/12/23 03:12:25;;;;;;;4.10;3.80;;;10.10;99.90;;;;;;5091969;28;20173;-59
2023/12/23 03:14:51;;;;;;;4.10;3.70;;;10.10;99.90;;;;;;5087527;28;20278;-59
2023/12/23 03:17:17;;;;;;;4.37;4.07;;;10.10;99.90;;;;;;5086639;28;20658;-59
2023/12/23 03:19:43;;;;;;;3.93;3.60;;;10.00;99.90;;;;;;5085119;28;20736;-59
2023/12/23 03:22:08;;;;;;;4.87;4.47;;;10.00;99.90;;;;;;5090157;28;20523;-59
2023/12/23 03:24:34;;;;;;;4.73;4.17;;;10.00;99.90;;;;;;5089465;28;20194;-59
2023/12/23 03:27:00;;;;;;;4.30;3.90;;;10.00;99.90;;;;;;5084417;28;20178;-59
2023/12/23 03:29:26;;;;;;;5.50;4.43;;;9.90;99.90;;;;;;5092224;28;20210;-59
2023/12/23 03:31:54;;;;;;;5.70;4.70;;;9.90;99.90;;;;;;5096039;28;20436;-59
2023/12/23 03:34:20;;;;;;;6.40;4.13;;;9.90;99.90;;;;;;5091825;28;20443;-59
2023/12/23 03:36:46;;;;;;;5.30;4.80;;;9.90;99.90;;;;;;5091455;28;20191;-59
2023/12/23 03:39:12;;;;;;;4.40;4.00;;;9.90;99.90;;;;;;5089813;28;20182;-59
2023/12/23 03:41:37;;;;;;;7.87;4.50;;;9.90;99.90;;;;;;5086827;28;20186;-59
2023/12/23 03:44:03;;;;;;;4.57;4.30;;;9.90;99.90;;;;;;5089938;28;20197;-59
2023/12/23 03:46:30;;;;;;;5.00;4.70;;;9.90;99.90;;;;;;5090085;28;20245;-59
2023/12/23 03:48:56;;;;;;;5.63;5.03;;;10.00;99.90;;;;;;5089349;28;20183;-59
2023/12/23 03:51:23;;;;;;;6.07;5.47;;;10.00;99.90;;;;;;5089789;28;20800;-59
2023/12/23 03:53:49;;;;;;;7.13;5.63;;;10.00;99.90;;;;;;5088489;28;20430;-59
2023/12/23 03:56:14;;;;;;;6.10;5.70;;;10.10;99.90;;;;;;5091026;28;20422;-59
2023/12/23 03:58:40;;;;;;;6.27;5.87;;;10.00;99.90;;;;;;5090104;28;20182;-59
2023/12/23 04:01:06;;;;;;;6.50;6.10;;;10.10;99.90;;;;;;5089609;28;20194;-59
2023/12/23 04:03:32;;;;;;;6.30;5.80;;;10.00;99.90;;;;;;5093569;28;20175;-59
2023/12/23 04:05:57;;;;;;;5.97;5.47;;;10.10;99.90;;;;;;5087187;28;20263;-59
2023/12/23 04:08:23;;;;;;;5.70;5.30;;;10.00;99.90;;;;;;5092233;28;20207;-59
2023/12/23 04:10:49;;;;;;;5.20;5.00;;;10.00;99.90;;;;;;5080005;28;20216;-59
2023/12/23 04:13:16;;;;;;;4.80;4.50;;;10.00;99.90;;;;;;5089875;28;20179;-59
2023/12/23 04:15:42;;;;;;;5.00;4.80;;;10.10;99.90;;;;;;5090591;28;20699;-59
2023/12/23 04:18:08;;;;;;;4.90;4.67;;;10.10;99.90;;;;;;5089834;28;20435;-59
2023/12/23 04:20:33;;;;;;;6.00;5.60;;;10.10;99.90;;;;;;5087161;28;20194;-60
2023/12/23 04:22:59;;;;;;;5.57;5.17;;;10.10;99.90;;;;;;5089543;28;20747;-59
2023/12/23 04:25:25;;;;;;;6.27;5.97;;;10.10;99.90;;;;;;5087641;28;20255;-61
2023/12/23 04:27:51;;;;;;;6.47;5.87;;;10.10;99.90;;;;;;5088257;28;20617;-59
2023/12/23 04:30:17;;;;;;;8.73;6.47;;;10.10;99.90;;;;;;5089393;28;20198;-59
2023/12/23 04:32:43;;;;;;;6.80;6.20;;;10.10;99.90;;;;;;5092217;28;20433;-59
2023/12/23 04:35:09;;;;;;;7.70;6.70;;;10.20;99.90;;;;;;5070979;28;20425;-59
2023/12/23 04:37:40;;;;;;;7.63;6.87;;;10.20;99.90;;;;;;5088105;28;20536;-59
2023/12/23 04:40:06;;;;;;;8.07;6.80;;;10.20;99.90;;;;;;5088520;28;21002;-59
2023/12/23 04:42:32;;;;;;;7.33;6.80;;;10.20;99.90;;;;;;5091030;28;20984;-59
2023/12/23 04:44:58;;;;;;;7.60;7.00;;;10.30;99.90;;;;;;5088864;28;20457;-59
2023/12/23 04:47:24;;;;;;;7.20;6.70;;;10.20;99.90;;;;;;5088893;28;20309;-59
2023/12/23 04:49:50;;;;;;;7.30;6.80;;;10.30;99.90;;;;;;5084484;28;20816;-59
2023/12/23 04:52:15;;;;;;;6.27;5.93;;;10.30;99.90;;;;;;5091453;28;20177;-59
2023/12/23 04:54:41;;;;;;;6.00;5.60;;;10.30;99.90;;;;;;5118456;27;20429;-59
2023/12/23 04:57:07;;;;;;;6.57;6.07;;;10.30;99.90;;;;;;5091526;28;20163;-59
2023/12/23 04:59:33;;;;;;;6.30;5.83;;;10.30;99.90;;;;;;5088926;28;20186;-59
2023/12/23 05:01:58;;;;;;;6.40;5.90;;;10.30;99.90;;;;;;5087491;28;20272;-59
2023/12/23 05:04:25;;;;;;;6.50;6.17;;;10.30;99.90;;;;;;5087776;28;20180;-59
2023/12/23 05:06:50;;;;;;;7.07;6.60;;;10.30;99.90;;;;;;5085388;28;20599;-59
2023/12/23 05:09:16;;;;;;;6.70;6.20;;;10.30;99.90;;;;;;5088768;28;20523;-59
2023/12/23 05:11:42;;;;;;;6.80;6.40;;;10.30;99.90;;;;;;5088537;28;20194;-59
2023/12/23 05:14:08;;;;;;;6.70;6.40;;;10.30;99.90;;;;;;5086699;28;20631;-59
2023/12/23 05:16:34;;;;;;;7.07;6.67;;;10.30;99.90;;;;;;5089156;28;20600;-59
2023/12/23 05:18:59;;;;;;;8.13;7.33;;;10.30;99.90;;;;;;5088756;28;20179;-59
2023/12/23 05:21:25;;;;;;;7.63;6.90;;;10.30;99.90;;;;;;5091111;28;20532;-59
2023/12/23 05:23:51;;;;;;;6.87;6.40;;;10.30;99.90;;;;;;5087554;28;20696;-59
2023/12/23 05:26:19;;;;;;;7.00;6.50;;;10.30;99.90;;;;;;5087734;28;20229;-59
2023/12/23 05:28:44;;;;;;;7.90;7.30;;;10.30;99.90;;;;;;5088158;28;20669;-59
2023/12/23 05:31:10;;;;;;;8.40;7.80;;;10.30;99.90;;;;;;5116663;28;20521;-59
2023/12/23 05:33:36;;;;;;;7.90;7.10;;;10.30;99.90;;;;;;5087810;28;20200;-59
2023/12/23 05:36:02;;;;;;;9.93;9.03;;;10.20;99.90;;;;;;5086599;28;20187;-59
2023/12/23 05:38:27;;;;;;;8.20;7.27;;;10.30;99.90;;;;;;5084190;28;20179;-59
2023/12/23 05:40:53;;;;;;;8.30;7.60;;;10.30;99.90;;;;;;5086709;28;20732;-59
2023/12/23 05:43:19;;;;;;;9.23;8.50;;;10.30;99.90;;;;;;5086351;28;20189;-59
2023/12/23 05:45:45;;;;;;;9.07;8.33;;;10.20;99.90;;;;;;5087226;28;20313;-59
2023/12/23 05:48:10;;;;;;;9.13;8.43;;;10.20;99.90;;;;;;5079273;28;20619;-59
2023/12/23 05:50:36;;;;;;;9.93;9.00;;;10.30;99.90;;;;;;5088598;28;20218;-59
2023/12/23 05:53:02;;;;;;;8.50;7.90;;;10.30;99.90;;;;;;5083009;28;20176;-59
2023/12/23 05:55:28;;;;;;;9.53;8.73;;;10.30;99.90;;;;;;5084273;28;20188;-59
2023/12/23 05:57:53;;;;;;;9.03;8.33;;;10.20;99.90;;;;;;5086607;28;20173;-59
2023/12/23 06:00:20;;;;;;;9.60;8.83;;;10.20;99.90;;;;;;5083729;28;20178;-59
2023/12/23 06:02:46;;;;;;;10.33;9.33;;;10.20;99.90;;;;;;5090032;28;20530;-59
2023/12/23 06:05:12;;;;;;;9.20;8.60;;;10.20;99.90;;;;;;5085893;28;20430;-59
2023/12/23 06:07:37;;;;;;;9.50;8.67;;;10.20;99.90;;;;;;5090291;28;20183;-59
2023/12/23 06:10:05;;;;;;;9.90;9.20;;;10.20;99.90;;;;;;5085509;28;20564;-59
2023/12/23 06:12:31;;;;;;;11.70;8.80;;;10.20;99.90;;;;;;5092224;28;20185;-59
2023/12/23 06:14:57;;;;;;;12.87;9.47;;;10.30;99.90;;;;;;5088228;28;20557;-59
2023/12/23 06:17:24;;;;;;;10.00;9.00;;;10.30;99.90;;;;;;5086504;28;20434;-60
2023/12/23 06:19:50;;;;;;;9.40;8.70;;;10.30;99.90;;;;;;5089713;28;20418;-60
2023/12/23 06:22:16;;;;;;;10.17;9.00;;;10.30;99.90;;;;;;5093867;28;20429;-60
2023/12/23 06:24:42;;;;;;;10.67;9.67;;;10.30;99.90;;;;;;5092744;28;20614;-59
2023/12/23 06:27:07;;;;;;;11.20;10.10;;;10.20;99.90;;;;;;5088693;28;20207;-59
2023/12/23 06:29:33;;;;;;;11.17;10.07;;;10.20;99.90;;;;;;5092178;28;20659;-60
2023/12/23 06:32:00;;;;;;;11.13;10.10;;;10.20;99.90;;;;;;5088227;28;20176;-59
2023/12/23 06:34:25;;;;;;;13.70;11.03;;;10.20;99.90;;;;;;5093518;28;20235;-59
2023/12/23 06:36:51;;;;;;;10.57;9.63;;;10.10;99.90;;;;;;5091959;28;20431;-60
2023/12/23 06:39:17;;;;;;;10.73;9.73;;;10.10;99.90;;;;;;5093008;28;20433;-59
2023/12/23 06:41:45;;;;;;;10.63;9.63;;;10.10;99.90;;;;;;5091184;28;20667;-60
2023/12/23 06:44:11;;;;;;;11.10;10.10;;;10.20;99.90;;;;;;5093685;28;20179;-60
2023/12/23 06:46:36;;;;;;;10.03;9.13;;;10.20;99.90;;;;;;5091350;28;20438;-59
2023/12/23 06:49:02;;;;;;;9.53;8.73;;;10.20;99.90;;;;;;5091518;28;20791;-59
